createdAt,value
2023-05-18T00:02:09.894Z,8.40
2023-05-18T00:04:43.788Z,9.33
2023-05-18T00:07:15.009Z,8.07
2023-05-18T00:09:45.858Z,8.57
2023-05-18T00:12:16.870Z,8.37
2023-05-18T00:14:47.704Z,9.23
2023-05-18T00:17:18.343Z,9.27
2023-05-18T00:19:51.968Z,8.07
2023-05-18T00:22:22.762Z,7.87
2023-05-18T00:24:53.388Z,8.23
2023-05-18T00:27:23.972Z,7.93
2023-05-18T00:29:54.826Z,7.83
2023-05-18T00:32:25.481Z,9.23
2023-05-18T00:34:58.654Z,8.80
2023-05-18T00:37:29.221Z,8.90
2023-05-18T00:39:59.815Z,8.47
2023-05-18T00:42:30.421Z,8.97
2023-05-18T00:45:01.145Z,8.23
2023-05-18T00:47:31.992Z,7.70
2023-05-18T00:50:05.555Z,7.90
2023-05-18T00:52:37.091Z,9.50
2023-05-18T00:55:08.949Z,8.33
2023-05-18T00:57:42.187Z,10.40
2023-05-18T01:00:15.173Z,9.90
2023-05-18T01:02:46.448Z,8.97
2023-05-18T01:05:22.454Z,9.97
2023-05-18T01:07:53.395Z,8.50
2023-05-18T01:10:24.300Z,9.83
2023-05-18T01:12:59.621Z,10.10
2023-05-18T01:15:35.195Z,9.00
2023-05-18T01:18:15.400Z,9.97
2023-05-18T01:20:52.354Z,9.00
2023-05-18T01:24:06.788Z,9.80
2023-05-18T01:26:45.438Z,9.90
2023-05-18T01:29:18.443Z,11.37
2023-05-18T01:31:49.586Z,9.13
2023-05-18T01:34:20.192Z,9.13
2023-05-18T01:36:50.963Z,9.27
2023-05-18T01:39:22.112Z,9.27
2023-05-18T01:42:01.644Z,10.17
2023-05-18T01:44:39.494Z,10.43
2023-05-18T01:47:15.707Z,10.53
2023-05-18T01:49:49.112Z,9.93
2023-05-18T01:52:23.921Z,10.80
2023-05-18T01:54:57.649Z,10.17
2023-05-18T01:57:33.557Z,10.37
2023-05-18T02:00:08.064Z,9.53
2023-05-18T02:02:47.738Z,10.80
2023-05-18T02:05:21.136Z,10.40
2023-05-18T02:07:52.209Z,9.77
2023-05-18T02:10:23.005Z,10.20
2023-05-18T02:12:56.211Z,9.73
2023-05-18T02:15:26.974Z,9.93
2023-05-18T02:17:58.606Z,9.33
2023-05-18T02:20:32.853Z,9.80
2023-05-18T02:23:03.527Z,11.07
2023-05-18T02:25:34.456Z,10.43
2023-05-18T02:28:07.833Z,10.90
2023-05-18T02:30:38.375Z,10.83
2023-05-18T02:33:09.324Z,11.03
2023-05-18T02:35:41.093Z,10.17
2023-05-18T02:38:12.032Z,10.50
2023-05-18T02:40:42.583Z,10.00
2023-05-18T02:43:16.389Z,10.80
2023-05-18T02:45:47.029Z,9.57
2023-05-18T02:48:18.506Z,10.87
2023-05-18T02:50:51.156Z,10.20
2023-05-18T02:53:22.071Z,9.00
2023-05-18T02:55:54.257Z,9.97
2023-05-18T02:58:33.283Z,9.40
2023-05-18T03:01:12.414Z,9.30
2023-05-18T03:03:49.457Z,10.53
2023-05-18T03:06:23.475Z,10.20
2023-05-18T03:08:54.499Z,10.77
2023-05-18T03:11:28.252Z,10.00
2023-05-18T03:14:01.523Z,8.70
2023-05-18T03:16:32.215Z,10.17
2023-05-18T03:19:03.349Z,10.27
2023-05-18T03:21:39.102Z,10.30
2023-05-18T03:24:12.293Z,10.93
2023-05-18T03:26:44.823Z,11.87
2023-05-18T03:29:18.466Z,11.50
2023-05-18T03:31:49.301Z,11.20
2023-05-18T03:34:20.066Z,12.40
2023-05-18T03:36:51.913Z,12.50
2023-05-18T03:39:22.548Z,10.27
2023-05-18T03:41:53.125Z,12.03
2023-05-18T03:44:26.419Z,12.00
2023-05-18T03:46:57.190Z,13.03
2023-05-18T03:49:29.892Z,12.40
2023-05-18T03:52:00.889Z,11.33
2023-05-18T03:54:31.653Z,10.53
2023-05-18T03:57:02.485Z,14.73
2023-05-18T03:59:36.279Z,13.17
2023-05-18T04:02:08.001Z,12.23
2023-05-18T04:04:42.105Z,11.13
2023-05-18T04:07:14.258Z,12.50
2023-05-18T04:09:46.427Z,12.50
2023-05-18T04:12:17.251Z,12.17
2023-05-18T04:14:51.190Z,13.40
2023-05-18T04:17:23.602Z,13.37
2023-05-18T04:19:54.232Z,13.73
2023-05-18T04:22:25.152Z,11.43
2023-05-18T04:24:57.501Z,13.83
2023-05-18T04:27:29.701Z,11.60
2023-05-18T04:30:03.173Z,11.73
2023-05-18T04:32:36.504Z,13.60
2023-05-18T04:35:07.761Z,13.70
2023-05-18T04:37:40.368Z,12.60
2023-05-18T04:40:17.635Z,12.77
2023-05-18T04:42:50.233Z,13.17
2023-05-18T04:45:32.260Z,12.43
2023-05-18T04:48:04.625Z,12.57
2023-05-18T04:50:36.039Z,11.57
2023-05-18T04:53:12.484Z,10.57
2023-05-18T04:55:43.411Z,10.87
2023-05-18T04:58:15.925Z,11.47
2023-05-18T05:00:49.387Z,9.50
2023-05-18T05:03:20.123Z,9.67
2023-05-18T05:05:51.238Z,9.20
2023-05-18T05:08:22.409Z,9.27
2023-05-18T05:10:53.093Z,7.90
2023-05-18T05:13:23.783Z,7.97
2023-05-18T05:15:57.209Z,7.20
2023-05-18T05:18:29.236Z,8.30
2023-05-18T05:21:02.096Z,7.27
2023-05-18T05:23:32.765Z,6.27
2023-05-18T05:26:03.496Z,7.13
2023-05-18T05:28:34.101Z,7.10
2023-05-18T05:31:07.419Z,6.13
2023-05-18T05:33:38.655Z,6.70
2023-05-18T05:36:10.331Z,6.40
2023-05-18T05:38:41.117Z,7.03
2023-05-18T05:41:12.074Z,6.20
2023-05-18T05:43:42.697Z,6.20
2023-05-18T05:46:16.347Z,6.03
2023-05-18T05:48:46.973Z,4.80
2023-05-18T05:51:17.616Z,6.30
2023-05-18T05:53:49.584Z,5.70
2023-05-18T05:56:21.357Z,6.13
2023-05-18T05:58:52.008Z,4.77
2023-05-18T06:01:25.378Z,4.80
2023-05-18T06:03:56.522Z,4.97
2023-05-18T06:06:27.337Z,5.87
2023-05-18T06:08:57.937Z,5.43
2023-05-18T06:11:28.673Z,5.67
2023-05-18T06:13:59.343Z,5.50
2023-05-18T06:16:32.577Z,4.60
2023-05-18T06:19:04.633Z,4.63
2023-05-18T06:21:35.386Z,5.40
2023-05-18T06:24:07.480Z,4.70
2023-05-18T06:26:48.749Z,4.90
2023-05-18T06:29:30.881Z,4.70
2023-05-18T06:32:27.274Z,4.97
2023-05-18T06:34:58.908Z,5.07
2023-05-18T06:37:29.525Z,4.43
2023-05-18T06:40:01.140Z,4.53
2023-05-18T06:42:32.921Z,5.50
2023-05-18T06:45:26.013Z,5.03
2023-05-18T06:48:02.728Z,4.40
2023-05-18T06:50:34.762Z,4.77
2023-05-18T06:53:06.701Z,4.00
2023-05-18T06:55:37.966Z,4.30
2023-05-18T06:58:08.574Z,5.43
2023-05-18T07:00:39.392Z,4.43
2023-05-18T07:03:13.861Z,4.60
2023-05-18T07:05:44.560Z,4.03
2023-05-18T07:08:15.266Z,5.67
2023-05-18T07:10:45.918Z,4.50
2023-05-18T07:13:16.536Z,4.20
2023-05-18T07:15:47.235Z,4.90
2023-05-18T07:18:20.494Z,4.80
2023-05-18T07:20:51.120Z,5.03
2023-05-18T07:23:22.578Z,4.83
2023-05-18T07:25:53.245Z,4.87
2023-05-18T07:28:23.896Z,4.10
2023-05-18T07:30:54.495Z,4.60
2023-05-18T07:33:27.663Z,5.20
2023-05-18T07:35:58.260Z,4.90
2023-05-18T07:38:28.976Z,4.73
2023-05-18T07:41:00.406Z,4.00
2023-05-18T07:43:31.053Z,5.40
2023-05-18T07:46:01.710Z,6.00
2023-05-18T07:48:34.946Z,5.80
2023-05-18T07:51:05.633Z,4.20
2023-05-18T07:53:38.102Z,5.30
2023-05-18T07:56:09.926Z,5.30
2023-05-18T07:58:40.537Z,4.33
2023-05-18T08:01:11.179Z,5.50
2023-05-18T08:03:44.415Z,6.10
2023-05-18T08:06:15.135Z,5.70
2023-05-18T08:08:45.746Z,5.60
2023-05-18T08:11:16.510Z,5.23
2023-05-18T08:13:47.274Z,5.43
2023-05-18T08:16:18.421Z,5.40
2023-05-18T08:18:51.700Z,5.90
2023-05-18T08:21:22.274Z,5.23
2023-05-18T08:23:52.974Z,4.63
2023-05-18T08:26:24.740Z,5.83
2023-05-18T08:28:55.594Z,5.67
2023-05-18T08:31:26.356Z,5.70
2023-05-18T08:33:59.787Z,5.30
2023-05-18T08:36:30.859Z,5.80
2023-05-18T08:39:02.190Z,4.90
2023-05-18T08:41:35.552Z,5.70
2023-05-18T08:44:14.616Z,5.60
2023-05-18T08:46:51.022Z,5.10
2023-05-18T08:49:25.292Z,6.00
2023-05-18T08:52:00.210Z,5.47
2023-05-18T08:54:33.196Z,4.90
2023-05-18T08:57:03.911Z,4.60
2023-05-18T08:59:39.970Z,5.37
2023-05-18T09:02:11.006Z,4.83
2023-05-18T09:04:45.355Z,4.70
2023-05-18T09:07:16.734Z,4.50
2023-05-18T09:09:49.470Z,4.73
2023-05-18T09:12:24.425Z,5.63
2023-05-18T09:14:56.218Z,4.73
2023-05-18T09:17:26.810Z,4.53
2023-05-18T09:20:00.045Z,4.40
2023-05-18T09:22:31.360Z,4.60
2023-05-18T09:25:02.188Z,4.80
2023-05-18T09:27:33.030Z,5.60
2023-05-18T09:30:03.835Z,5.07
2023-05-18T09:32:39.205Z,4.80
2023-05-18T09:35:14.211Z,5.37
2023-05-18T09:37:46.468Z,4.47
2023-05-18T09:40:19.631Z,4.77
2023-05-18T09:42:50.213Z,4.60
2023-05-18T09:45:25.779Z,5.47
2023-05-18T09:47:57.418Z,4.70
2023-05-18T09:50:31.000Z,5.50
2023-05-18T09:53:02.926Z,4.90
2023-05-18T09:55:33.843Z,4.27
2023-05-18T09:58:04.987Z,5.60
2023-05-18T10:00:35.755Z,5.40
2023-05-18T10:03:06.770Z,5.20
2023-05-18T10:05:40.074Z,4.43
2023-05-18T10:08:10.713Z,4.10
2023-05-18T10:10:44.645Z,3.97
2023-05-18T10:13:21.127Z,5.37
2023-05-18T10:15:54.354Z,3.53
2023-05-18T10:18:26.884Z,6.20
2023-05-18T10:21:01.282Z,4.53
2023-05-18T10:23:34.761Z,4.20
2023-05-18T10:26:10.246Z,4.73
2023-05-18T10:28:44.515Z,4.10
2023-05-18T10:31:15.975Z,4.77
2023-05-18T10:33:48.901Z,4.70
2023-05-18T10:36:22.472Z,4.50
2023-05-18T10:38:53.662Z,4.67
2023-05-18T10:41:26.178Z,4.93
2023-05-18T10:44:03.863Z,4.67
2023-05-18T10:46:34.820Z,4.50
2023-05-18T10:49:13.403Z,4.50
2023-05-18T10:51:50.991Z,4.37
2023-05-18T10:54:22.486Z,4.93
2023-05-18T10:56:56.665Z,4.80
2023-05-18T10:59:27.867Z,4.50
2023-05-18T11:02:00.648Z,3.83
2023-05-18T11:04:32.512Z,4.43
2023-05-18T11:07:05.904Z,4.87
2023-05-18T11:09:37.347Z,5.00
2023-05-18T11:12:15.957Z,4.03
2023-05-18T11:14:53.796Z,4.77
2023-05-18T11:17:26.247Z,4.70
2023-05-18T11:20:15.601Z,5.07
2023-05-18T11:22:53.472Z,4.20
2023-05-18T11:25:39.501Z,4.30
2023-05-18T11:28:12.210Z,4.33
2023-05-18T11:30:53.711Z,4.60
2023-05-18T11:33:30.820Z,4.20
2023-05-18T11:36:07.550Z,4.17
2023-05-18T11:39:11.614Z,4.80
2023-05-18T11:41:44.680Z,5.03
2023-05-18T11:44:23.652Z,4.10
2023-05-18T11:47:02.858Z,4.53
2023-05-18T11:49:35.854Z,4.10
2023-05-18T11:52:08.937Z,3.77
2023-05-18T11:54:47.131Z,4.70
2023-05-18T11:57:19.341Z,3.63
2023-05-18T11:59:51.294Z,4.20
2023-05-18T12:02:27.466Z,3.67
2023-05-18T12:05:00.414Z,3.93
2023-05-18T12:07:32.630Z,4.90
2023-05-18T12:10:08.057Z,4.10
2023-05-18T12:12:39.837Z,4.07
2023-05-18T12:15:16.517Z,4.10
2023-05-18T12:17:49.807Z,3.70
2023-05-18T12:20:22.011Z,4.00
2023-05-18T12:22:54.859Z,3.77
2023-05-18T12:25:30.466Z,4.60
2023-05-18T12:28:02.278Z,4.03
2023-05-18T12:30:35.920Z,3.87
2023-05-18T12:33:07.540Z,3.40
2023-05-18T12:35:38.225Z,4.47
2023-05-18T12:38:08.849Z,4.23
2023-05-18T12:40:48.982Z,3.77
2023-05-18T12:43:19.671Z,3.87
2023-05-18T12:45:50.369Z,3.97
2023-05-18T12:48:22.806Z,4.10
2023-05-18T12:50:56.440Z,3.37
2023-05-18T12:53:27.056Z,4.60
2023-05-18T12:56:04.427Z,4.30
2023-05-18T12:58:35.039Z,3.67
2023-05-18T13:01:11.829Z,3.80
2023-05-18T13:03:43.633Z,3.50
2023-05-18T13:06:14.241Z,4.13
2023-05-18T13:08:45.854Z,4.13
2023-05-18T13:11:19.106Z,4.17
2023-05-18T13:14:05.350Z,4.50
2023-05-18T13:16:38.139Z,4.10
2023-05-18T13:19:13.399Z,3.33
2023-05-18T13:21:44.044Z,3.63
2023-05-18T13:24:15.097Z,3.67
2023-05-18T13:26:48.489Z,3.83
2023-05-18T13:29:19.524Z,3.63
2023-05-18T13:31:50.113Z,3.40
2023-05-18T13:34:21.002Z,4.27
2023-05-18T13:36:52.243Z,3.97
2023-05-18T13:39:23.132Z,4.10
2023-05-18T13:41:57.200Z,3.80
2023-05-18T13:44:27.819Z,3.60
2023-05-18T13:46:58.406Z,3.20
2023-05-18T13:49:29.097Z,3.30
2023-05-18T13:52:00.509Z,4.20
2023-05-18T13:54:31.074Z,3.90
2023-05-18T13:57:04.324Z,3.83
2023-05-18T13:59:35.686Z,4.10
2023-05-18T14:02:06.377Z,3.93
2023-05-18T14:04:36.956Z,3.40
2023-05-18T14:07:09.700Z,4.47
2023-05-18T14:09:40.428Z,4.67
2023-05-18T14:12:14.448Z,3.53
2023-05-18T14:14:45.337Z,5.40
2023-05-18T14:17:16.427Z,3.67
2023-05-18T14:19:47.176Z,4.23
2023-05-18T14:22:18.930Z,3.43
2023-05-18T14:24:49.488Z,3.27
2023-05-18T14:27:23.151Z,3.33
2023-05-18T14:29:54.054Z,3.60
2023-05-18T14:32:24.657Z,3.30
2023-05-18T14:34:56.050Z,3.00
2023-05-18T14:37:26.720Z,2.90
2023-05-18T14:39:57.365Z,3.03
2023-05-18T14:42:30.542Z,3.20
2023-05-18T14:45:01.127Z,3.57
2023-05-18T14:47:31.820Z,4.03
2023-05-18T14:50:02.459Z,3.50
2023-05-18T14:52:33.134Z,4.03
2023-05-18T14:55:03.767Z,3.27
2023-05-18T14:57:36.959Z,3.33
2023-05-18T15:00:09.268Z,3.40
2023-05-18T15:02:39.900Z,3.37
2023-05-18T15:05:11.502Z,4.20
2023-05-18T15:07:42.120Z,3.60
2023-05-18T15:10:13.449Z,4.80
2023-05-18T15:12:46.627Z,3.50
2023-05-18T15:15:17.323Z,2.97
2023-05-18T15:17:48.054Z,3.33
2023-05-18T15:20:18.687Z,3.80
2023-05-18T15:22:50.023Z,3.70
2023-05-18T15:25:21.127Z,4.30
2023-05-18T15:27:55.121Z,3.63
2023-05-18T15:30:25.830Z,3.40
2023-05-18T15:32:56.502Z,3.23
2023-05-18T15:35:27.289Z,3.53
2023-05-18T15:37:58.354Z,4.03
2023-05-18T15:40:29.581Z,4.13
2023-05-18T15:43:03.001Z,5.63
2023-05-18T15:45:33.677Z,5.30
2023-05-18T15:48:04.344Z,7.00
2023-05-18T15:50:35.049Z,3.73
2023-05-18T15:53:06.144Z,3.67
2023-05-18T15:55:36.801Z,5.23
2023-05-18T15:58:09.969Z,6.00
2023-05-18T16:00:40.666Z,3.80
2023-05-18T16:03:12.671Z,3.50
2023-05-18T16:05:44.346Z,3.97
2023-05-18T16:08:15.228Z,4.47
2023-05-18T16:10:45.807Z,4.37
2023-05-18T16:13:20.190Z,5.37
2023-05-18T16:15:50.865Z,3.70
2023-05-18T16:18:21.544Z,7.20
2023-05-18T16:20:52.141Z,7.13
2023-05-18T16:23:22.855Z,3.57
2023-05-18T16:25:53.506Z,3.17
2023-05-18T16:28:26.751Z,6.07
2023-05-18T16:30:57.312Z,3.47
2023-05-18T16:33:28.134Z,3.67
2023-05-18T16:35:58.982Z,5.83
2023-05-18T16:38:29.626Z,6.77
2023-05-18T16:41:00.362Z,4.90
2023-05-18T16:43:33.685Z,3.33
2023-05-18T16:46:04.351Z,3.60
2023-05-18T16:48:34.990Z,6.40
2023-05-18T16:51:06.933Z,4.73
2023-05-18T16:53:38.054Z,4.57
2023-05-18T16:56:09.135Z,5.57
2023-05-18T16:58:42.489Z,3.47
2023-05-18T17:01:26.793Z,4.70
2023-05-18T17:03:59.138Z,4.67
2023-05-18T17:06:29.979Z,4.30
2023-05-18T17:09:00.594Z,4.13
2023-05-18T17:11:31.475Z,4.67
2023-05-18T17:14:05.236Z,4.60
2023-05-18T17:16:40.434Z,4.10
2023-05-18T17:19:11.537Z,3.87
2023-05-18T17:21:45.067Z,4.10
2023-05-18T17:24:15.736Z,3.70
2023-05-18T17:26:46.530Z,3.57
2023-05-18T17:29:21.684Z,3.60
2023-05-18T17:31:52.561Z,4.20
2023-05-18T17:34:23.677Z,5.10
2023-05-18T17:36:55.157Z,4.10
2023-05-18T17:39:25.850Z,4.47
2023-05-18T17:41:56.588Z,4.57
2023-05-18T17:44:29.939Z,3.87
2023-05-18T17:47:01.675Z,4.00
2023-05-18T17:49:32.581Z,5.00
2023-05-18T17:52:03.806Z,4.03
2023-05-18T17:54:34.391Z,3.67
2023-05-18T17:57:04.979Z,3.90
2023-05-18T17:59:38.430Z,3.80
2023-05-18T18:02:11.132Z,4.80
2023-05-18T18:04:41.760Z,7.47
2023-05-18T18:07:12.388Z,5.00
2023-05-18T18:09:43.007Z,4.00
2023-05-18T18:12:13.666Z,4.77
2023-05-18T18:14:46.868Z,5.93
2023-05-18T18:17:17.790Z,8.63
2023-05-18T18:19:48.396Z,5.63
2023-05-18T18:22:19.076Z,4.53
2023-05-18T18:24:49.792Z,5.07
2023-05-18T18:27:20.855Z,7.90
2023-05-18T18:29:54.059Z,4.30
2023-05-18T18:32:24.672Z,3.97
2023-05-18T18:34:55.284Z,3.80
2023-05-18T18:37:26.018Z,4.03
2023-05-18T18:39:56.738Z,4.80
2023-05-18T18:42:27.527Z,4.40
2023-05-18T18:45:00.726Z,3.93
2023-05-18T18:47:31.347Z,4.97
2023-05-18T18:50:02.899Z,4.03
2023-05-18T18:52:33.539Z,4.47
2023-05-18T18:55:04.930Z,4.40
2023-05-18T18:57:36.177Z,7.60
2023-05-18T19:00:11.744Z,5.20
2023-05-18T19:02:43.020Z,3.80
2023-05-18T19:05:14.243Z,5.23
2023-05-18T19:07:44.832Z,6.00
2023-05-18T19:10:15.476Z,5.30
2023-05-18T19:12:46.623Z,7.90
2023-05-18T19:15:21.484Z,4.87
2023-05-18T19:17:54.052Z,8.63
2023-05-18T19:20:25.789Z,5.50
2023-05-18T19:22:56.492Z,5.97
2023-05-18T19:25:29.830Z,9.40
2023-05-18T19:28:00.773Z,5.23
2023-05-18T19:30:34.219Z,5.60
2023-05-18T19:33:04.854Z,9.30
2023-05-18T19:35:35.941Z,8.07
2023-05-18T19:38:06.516Z,6.43
2023-05-18T19:40:37.169Z,6.47
2023-05-18T19:43:07.985Z,7.10
2023-05-18T19:45:41.280Z,5.43
2023-05-18T19:48:12.064Z,11.83
2023-05-18T19:50:42.696Z,10.67
2023-05-18T19:53:13.378Z,7.03
2023-05-18T19:55:44.007Z,6.73
2023-05-18T19:58:14.600Z,7.07
2023-05-18T20:00:47.791Z,7.73
2023-05-18T20:03:20.118Z,11.17
2023-05-18T20:05:50.998Z,7.60
2023-05-18T20:08:21.746Z,9.63
2023-05-18T20:10:54.068Z,6.10
2023-05-18T20:13:24.861Z,30.40
2023-05-18T20:15:58.049Z,16.63
2023-05-18T20:18:29.271Z,9.70
2023-05-18T20:20:59.994Z,6.60
2023-05-18T20:23:30.837Z,6.70
2023-05-18T20:26:01.565Z,5.03
2023-05-18T20:28:32.297Z,4.73
2023-05-18T20:31:05.706Z,5.53
2023-05-18T20:33:37.098Z,5.83
2023-05-18T20:36:09.309Z,6.00
2023-05-18T20:38:39.880Z,6.03
2023-05-18T20:41:10.735Z,7.03
2023-05-18T20:43:41.325Z,7.57
2023-05-18T20:46:15.715Z,14.03
2023-05-18T20:48:47.740Z,7.43
2023-05-18T20:51:20.311Z,5.80
2023-05-18T20:53:52.632Z,5.23
2023-05-18T20:56:23.244Z,5.27
2023-05-18T20:58:53.879Z,5.50
2023-05-18T21:01:28.895Z,4.50
2023-05-18T21:04:00.651Z,4.50
2023-05-18T21:06:31.520Z,4.93
2023-05-18T21:09:02.272Z,4.30
2023-05-18T21:11:32.985Z,4.97
2023-05-18T21:14:03.599Z,4.07
2023-05-18T21:16:37.158Z,5.10
2023-05-18T21:19:07.876Z,4.93
2023-05-18T21:21:38.864Z,4.30
2023-05-18T21:24:09.724Z,4.03
2023-05-18T21:26:41.073Z,4.40
2023-05-18T21:29:12.268Z,5.03
2023-05-18T21:31:45.524Z,4.33
2023-05-18T21:34:16.756Z,4.90
2023-05-18T21:36:47.423Z,5.37
2023-05-18T21:39:18.184Z,4.70
2023-05-18T21:41:48.834Z,3.93
2023-05-18T21:44:19.450Z,4.27
2023-05-18T21:46:55.451Z,5.53
2023-05-18T21:49:26.262Z,5.77
2023-05-18T21:51:58.284Z,5.47
2023-05-18T21:54:32.647Z,5.03
2023-05-18T21:57:03.607Z,4.83
2023-05-18T21:59:34.212Z,5.90
2023-05-18T22:02:07.500Z,5.00
2023-05-18T22:04:38.223Z,5.80
2023-05-18T22:07:09.054Z,5.70
2023-05-18T22:09:39.657Z,5.80
2023-05-18T22:12:10.430Z,4.60
2023-05-18T22:14:41.171Z,5.23
2023-05-18T22:17:14.438Z,5.37
2023-05-18T22:19:45.751Z,5.47
2023-05-18T22:22:29.290Z,4.50
2023-05-18T22:25:01.287Z,5.10
2023-05-18T22:27:33.911Z,4.93
2023-05-18T22:30:04.494Z,4.80
2023-05-18T22:32:38.346Z,5.13
2023-05-18T22:35:10.509Z,5.70
2023-05-18T22:37:41.138Z,4.17
2023-05-18T22:40:13.175Z,4.87
2023-05-18T22:42:43.729Z,4.63
2023-05-18T22:45:14.896Z,4.70
2023-05-18T22:47:48.468Z,4.20
2023-05-18T22:50:19.109Z,4.93
2023-05-18T22:52:49.750Z,4.50
2023-05-18T22:55:20.499Z,5.23
2023-05-18T22:57:51.162Z,4.10
2023-05-18T23:00:21.993Z,4.87
2023-05-18T23:02:55.629Z,4.30
2023-05-18T23:05:26.909Z,4.60
2023-05-18T23:07:59.317Z,4.80
2023-05-18T23:10:30.857Z,5.93
2023-05-18T23:13:01.674Z,4.77
2023-05-18T23:15:34.567Z,5.43
2023-05-18T23:18:10.372Z,4.87
2023-05-18T23:20:42.193Z,5.20
2023-05-18T23:23:12.784Z,4.20
2023-05-18T23:25:43.556Z,5.40
2023-05-18T23:28:14.184Z,5.53
2023-05-18T23:30:44.963Z,5.07
2023-05-18T23:33:19.437Z,5.00
2023-05-18T23:35:51.517Z,4.43
2023-05-18T23:38:24.363Z,5.60
2023-05-18T23:40:57.036Z,5.10
2023-05-18T23:43:28.277Z,4.70
2023-05-18T23:45:59.882Z,4.40
2023-05-18T23:48:34.214Z,5.30
2023-05-18T23:51:06.064Z,4.87
2023-05-18T23:53:37.881Z,4.70
2023-05-18T23:56:09.854Z,4.77
2023-05-18T23:58:43.244Z,5.03
